sensor_id;sensor_type;location;lat;lon;timestamp;temperature;humidity
21799;DHT22;24973;47.178;15.316;2022-10-10T00:01:54;11.00;99.90
21799;DHT22;24973;47.178;15.316;2022-10-10T00:04:44;11.00;99.90
21799;DHT22;24973;47.178;15.316;2022-10-10T00:07:33;11.00;99.90
21799;DHT22;24973;47.178;15.316;2022-10-10T00:10:22;11.00;99.90
21799;DHT22;24973;47.178;15.316;2022-10-10T00:13:11;11.00;99.90
21799;DHT22;24973;47.178;15.316;2022-10-10T00:16:00;11.00;99.90
21799;DHT22;24973;47.178;15.316;2022-10-10T00:18:49;11.00;99.90
21799;DHT22;24973;47.178;15.316;2022-10-10T00:21:40;10.90;99.90
21799;DHT22;24973;47.178;15.316;2022-10-10T00:24:28;10.90;99.90
21799;DHT22;24973;47.178;15.316;2022-10-10T00:27:17;10.90;99.90
21799;DHT22;24973;47.178;15.316;2022-10-10T00:30:08;10.90;99.90
21799;DHT22;24973;47.178;15.316;2022-10-10T00:32:57;10.90;99.90
21799;DHT22;24973;47.178;15.316;2022-10-10T00:35:47;10.90;99.90
21799;DHT22;24973;47.178;15.316;2022-10-10T00:38:37;10.80;99.90
21799;DHT22;24973;47.178;15.316;2022-10-10T00:41:26;10.80;99.90
21799;DHT22;24973;47.178;15.316;2022-10-10T00:44:15;10.80;99.90
21799;DHT22;24973;47.178;15.316;2022-10-10T00:47:04;10.70;99.90
21799;DHT22;24973;47.178;15.316;2022-10-10T00:49:53;10.70;99.90
21799;DHT22;24973;47.178;15.316;2022-10-10T00:52:42;10.60;99.90
21799;DHT22;24973;47.178;15.316;2022-10-10T00:55:32;10.60;99.90
21799;DHT22;24973;47.178;15.316;2022-10-10T00:58:21;10.50;99.90
21799;DHT22;24973;47.178;15.316;2022-10-10T01:01:10;10.50;99.90
21799;DHT22;24973;47.178;15.316;2022-10-10T01:04:00;10.40;99.90
21799;DHT22;24973;47.178;15.316;2022-10-10T01:06:49;10.40;99.90
21799;DHT22;24973;47.178;15.316;2022-10-10T01:09:40;10.40;99.90
21799;DHT22;24973;47.178;15.316;2022-10-10T01:12:39;10.30;99.90
21799;DHT22;24973;47.178;15.316;2022-10-10T01:15:44;10.30;99.90
21799;DHT22;24973;47.178;15.316;2022-10-10T01:18:42;10.30;99.90
21799;DHT22;24973;47.178;15.316;2022-10-10T01:21:38;10.30;99.90
21799;DHT22;24973;47.178;15.316;2022-10-10T01:24:47;10.30;99.90
21799;DHT22;24973;47.178;15.316;2022-10-10T01:27:46;10.20;99.90
21799;DHT22;24973;47.178;15.316;2022-10-10T01:30:40;10.20;99.90
21799;DHT22;24973;47.178;15.316;2022-10-10T01:33:35;10.20;99.90
21799;DHT22;24973;47.178;15.316;2022-10-10T01:36:32;10.20;99.90
21799;DHT22;24973;47.178;15.316;2022-10-10T01:39:30;10.20;99.90
21799;DHT22;24973;47.178;15.316;2022-10-10T01:42:33;10.20;99.90
21799;DHT22;24973;47.178;15.316;2022-10-10T01:45:26;10.20;99.90
21799;DHT22;24973;47.178;15.316;2022-10-10T01:48:20;10.20;99.90
21799;DHT22;24973;47.178;15.316;2022-10-10T01:51:23;10.20;99.90
21799;DHT22;24973;47.178;15.316;2022-10-10T01:54:37;10.10;99.90
21799;DHT22;24973;47.178;15.316;2022-10-10T01:57:33;10.10;99.90
21799;DHT22;24973;47.178;15.316;2022-10-10T02:00:30;10.10;99.90
21799;DHT22;24973;47.178;15.316;2022-10-10T02:03:28;10.20;99.90
21799;DHT22;24973;47.178;15.316;2022-10-10T02:06:21;10.20;99.90
21799;DHT22;24973;47.178;15.316;2022-10-10T02:09:18;10.20;99.90
21799;DHT22;24973;47.178;15.316;2022-10-10T02:12:10;10.20;99.90
21799;DHT22;24973;47.178;15.316;2022-10-10T02:15:04;10.10;99.90
21799;DHT22;24973;47.178;15.316;2022-10-10T02:17:56;10.10;99.90
21799;DHT22;24973;47.178;15.316;2022-10-10T02:20:48;10.10;99.90
21799;DHT22;24973;47.178;15.316;2022-10-10T02:23:39;10.10;99.90
21799;DHT22;24973;47.178;15.316;2022-10-10T02:26:30;10.10;99.90
21799;DHT22;24973;47.178;15.316;2022-10-10T02:29:24;10.10;99.90
21799;DHT22;24973;47.178;15.316;2022-10-10T02:32:19;10.10;99.90
21799;DHT22;24973;47.178;15.316;2022-10-10T02:35:13;10.20;99.90
21799;DHT22;24973;47.178;15.316;2022-10-10T02:38:06;10.20;99.90
21799;DHT22;24973;47.178;15.316;2022-10-10T02:40:58;10.20;99.90
21799;DHT22;24973;47.178;15.316;2022-10-10T02:43:50;10.20;99.90
21799;DHT22;24973;47.178;15.316;2022-10-10T02:46:39;10.20;99.90
21799;DHT22;24973;47.178;15.316;2022-10-10T02:49:30;10.20;99.90
21799;DHT22;24973;47.178;15.316;2022-10-10T02:52:20;10.20;99.90
21799;DHT22;24973;47.178;15.316;2022-10-10T02:55:10;10.20;99.90
21799;DHT22;24973;47.178;15.316;2022-10-10T02:57:59;10.20;99.90
21799;DHT22;24973;47.178;15.316;2022-10-10T03:00:48;10.20;99.90
21799;DHT22;24973;47.178;15.316;2022-10-10T03:03:36;10.10;99.90
21799;DHT22;24973;47.178;15.316;2022-10-10T03:06:25;10.10;99.90
21799;DHT22;24973;47.178;15.316;2022-10-10T03:09:14;10.10;99.90
21799;DHT22;24973;47.178;15.316;2022-10-10T03:12:04;10.00;99.90
21799;DHT22;24973;47.178;15.316;2022-10-10T03:14:53;10.00;99.90
21799;DHT22;24973;47.178;15.316;2022-10-10T03:17:42;9.90;99.90
21799;DHT22;24973;47.178;15.316;2022-10-10T03:20:31;9.90;99.90
21799;DHT22;24973;47.178;15.316;2022-10-10T03:23:19;10.00;99.90
21799;DHT22;24973;47.178;15.316;2022-10-10T03:26:08;10.00;99.90
21799;DHT22;24973;47.178;15.316;2022-10-10T03:29:00;9.90;99.90
21799;DHT22;24973;47.178;15.316;2022-10-10T03:31:49;9.90;99.90
21799;DHT22;24973;47.178;15.316;2022-10-10T03:34:38;9.90;99.90
21799;DHT22;24973;47.178;15.316;2022-10-10T03:37:26;9.90;99.90
21799;DHT22;24973;47.178;15.316;2022-10-10T03:40:15;9.90;99.90
21799;DHT22;24973;47.178;15.316;2022-10-10T03:43:04;9.90;99.90
21799;DHT22;24973;47.178;15.316;2022-10-10T03:45:54;9.90;99.90
21799;DHT22;24973;47.178;15.316;2022-10-10T03:48:43;9.90;99.90
21799;DHT22;24973;47.178;15.316;2022-10-10T03:51:31;9.90;99.90
21799;DHT22;24973;47.178;15.316;2022-10-10T03:54:20;9.90;99.90
21799;DHT22;24973;47.178;15.316;2022-10-10T03:57:09;9.90;99.90
21799;DHT22;24973;47.178;15.316;2022-10-10T03:59:58;10.00;99.90
21799;DHT22;24973;47.178;15.316;2022-10-10T04:02:48;10.00;99.90
21799;DHT22;24973;47.178;15.316;2022-10-10T04:05:37;10.00;99.90
21799;DHT22;24973;47.178;15.316;2022-10-10T04:08:26;10.00;99.90
21799;DHT22;24973;47.178;15.316;2022-10-10T04:11:16;10.00;99.90
21799;DHT22;24973;47.178;15.316;2022-10-10T04:14:04;10.10;99.90
21799;DHT22;24973;47.178;15.316;2022-10-10T04:16:53;10.10;99.90
21799;DHT22;24973;47.178;15.316;2022-10-10T04:19:45;10.10;99.90
21799;DHT22;24973;47.178;15.316;2022-10-10T04:22:34;10.20;99.90
21799;DHT22;24973;47.178;15.316;2022-10-10T04:25:22;10.20;99.90
21799;DHT22;24973;47.178;15.316;2022-10-10T04:28:11;10.30;99.90
21799;DHT22;24973;47.178;15.316;2022-10-10T04:31:00;10.30;99.90
21799;DHT22;24973;47.178;15.316;2022-10-10T04:33:49;10.30;99.90
21799;DHT22;24973;47.178;15.316;2022-10-10T04:36:40;10.30;99.90
21799;DHT22;24973;47.178;15.316;2022-10-10T04:39:28;10.30;99.90
21799;DHT22;24973;47.178;15.316;2022-10-10T04:42:17;10.30;99.90
21799;DHT22;24973;47.178;15.316;2022-10-10T04:45:07;10.20;99.90
21799;DHT22;24973;47.178;15.316;2022-10-10T04:48:04;10.20;99.90
21799;DHT22;24973;47.178;15.316;2022-10-10T04:50:53;10.20;99.90
21799;DHT22;24973;47.178;15.316;2022-10-10T04:53:45;10.10;99.90
21799;DHT22;24973;47.178;15.316;2022-10-10T04:56:36;10.20;99.90
21799;DHT22;24973;47.178;15.316;2022-10-10T04:59:27;10.20;99.90
21799;DHT22;24973;47.178;15.316;2022-10-10T05:02:16;10.20;99.90
21799;DHT22;24973;47.178;15.316;2022-10-10T05:05:05;10.20;99.90
21799;DHT22;24973;47.178;15.316;2022-10-10T05:07:55;10.20;99.90
21799;DHT22;24973;47.178;15.316;2022-10-10T05:10:46;10.30;99.90
21799;DHT22;24973;47.178;15.316;2022-10-10T05:13:35;10.20;99.90
21799;DHT22;24973;47.178;15.316;2022-10-10T05:16:23;10.30;99.90
21799;DHT22;24973;47.178;15.316;2022-10-10T05:19:12;10.30;99.90
21799;DHT22;24973;47.178;15.316;2022-10-10T05:22:01;10.30;99.90
21799;DHT22;24973;47.178;15.316;2022-10-10T05:24:49;10.20;99.90
21799;DHT22;24973;47.178;15.316;2022-10-10T05:27:39;11.10;99.90
21799;DHT22;24973;47.178;15.316;2022-10-10T05:30:28;10.20;99.90
21799;DHT22;24973;47.178;15.316;2022-10-10T05:33:17;10.20;99.90
21799;DHT22;24973;47.178;15.316;2022-10-10T05:36:07;10.20;99.90
21799;DHT22;24973;47.178;15.316;2022-10-10T05:38:57;10.20;99.90
21799;DHT22;24973;47.178;15.316;2022-10-10T05:41:47;10.30;99.90
21799;DHT22;24973;47.178;15.316;2022-10-10T05:44:37;10.30;99.90
21799;DHT22;24973;47.178;15.316;2022-10-10T05:47:26;10.30;99.90
21799;DHT22;24973;47.178;15.316;2022-10-10T05:50:24;10.30;99.90
21799;DHT22;24973;47.178;15.316;2022-10-10T05:53:17;10.40;99.90
21799;DHT22;24973;47.178;15.316;2022-10-10T05:56:06;10.40;99.90
21799;DHT22;24973;47.178;15.316;2022-10-10T05:58:55;10.30;99.90
21799;DHT22;24973;47.178;15.316;2022-10-10T06:01:45;10.30;99.90
21799;DHT22;24973;47.178;15.316;2022-10-10T06:04:34;10.30;99.90
21799;DHT22;24973;47.178;15.316;2022-10-10T06:07:23;10.30;99.90
21799;DHT22;24973;47.178;15.316;2022-10-10T06:10:18;10.30;99.90
21799;DHT22;24973;47.178;15.316;2022-10-10T06:13:07;10.30;99.90
21799;DHT22;24973;47.178;15.316;2022-10-10T06:15:55;10.30;99.90
21799;DHT22;24973;47.178;15.316;2022-10-10T06:18:45;10.30;99.90
21799;DHT22;24973;47.178;15.316;2022-10-10T06:21:34;10.50;99.90
21799;DHT22;24973;47.178;15.316;2022-10-10T06:24:23;10.50;99.90
21799;DHT22;24973;47.178;15.316;2022-10-10T06:27:12;10.60;99.90
21799;DHT22;24973;47.178;15.316;2022-10-10T06:30:00;10.60;99.90
21799;DHT22;24973;47.178;15.316;2022-10-10T06:32:49;10.70;99.90
21799;DHT22;24973;47.178;15.316;2022-10-10T06:35:43;10.70;99.90
21799;DHT22;24973;47.178;15.316;2022-10-10T06:38:35;10.80;99.90
21799;DHT22;24973;47.178;15.316;2022-10-10T06:41:24;10.80;99.90
21799;DHT22;24973;47.178;15.316;2022-10-10T06:44:13;10.90;99.90
21799;DHT22;24973;47.178;15.316;2022-10-10T06:47:01;10.90;99.90
21799;DHT22;24973;47.178;15.316;2022-10-10T06:49:50;11.00;99.90
21799;DHT22;24973;47.178;15.316;2022-10-10T06:52:40;11.00;99.90
21799;DHT22;24973;47.178;15.316;2022-10-10T06:55:29;11.10;99.90
21799;DHT22;24973;47.178;15.316;2022-10-10T06:58:18;11.20;99.90
21799;DHT22;24973;47.178;15.316;2022-10-10T07:01:08;11.20;99.90
21799;DHT22;24973;47.178;15.316;2022-10-10T07:03:56;11.30;99.90
21799;DHT22;24973;47.178;15.316;2022-10-10T07:06:45;11.40;99.90
21799;DHT22;24973;47.178;15.316;2022-10-10T07:09:35;11.40;99.90
21799;DHT22;24973;47.178;15.316;2022-10-10T07:12:24;11.50;99.90
21799;DHT22;24973;47.178;15.316;2022-10-10T07:15:15;11.60;99.90
21799;DHT22;24973;47.178;15.316;2022-10-10T07:18:04;11.60;99.90
21799;DHT22;24973;47.178;15.316;2022-10-10T07:20:55;11.70;99.90
21799;DHT22;24973;47.178;15.316;2022-10-10T07:23:44;11.80;99.90
21799;DHT22;24973;47.178;15.316;2022-10-10T07:26:34;11.80;99.90
21799;DHT22;24973;47.178;15.316;2022-10-10T07:29:24;11.80;99.90
21799;DHT22;24973;47.178;15.316;2022-10-10T07:32:14;11.90;99.90
21799;DHT22;24973;47.178;15.316;2022-10-10T07:35:03;12.00;99.90
21799;DHT22;24973;47.178;15.316;2022-10-10T07:37:53;12.10;99.90
21799;DHT22;24973;47.178;15.316;2022-10-10T07:40:42;12.10;99.90
21799;DHT22;24973;47.178;15.316;2022-10-10T07:43:32;12.20;99.90
21799;DHT22;24973;47.178;15.316;2022-10-10T07:46:21;12.20;99.90
21799;DHT22;24973;47.178;15.316;2022-10-10T07:49:10;12.30;99.90
21799;DHT22;24973;47.178;15.316;2022-10-10T07:51:59;12.30;99.90
21799;DHT22;24973;47.178;15.316;2022-10-10T07:54:48;12.40;99.90
21799;DHT22;24973;47.178;15.316;2022-10-10T07:57:37;12.40;99.90
21799;DHT22;24973;47.178;15.316;2022-10-10T08:00:27;12.50;99.90
21799;DHT22;24973;47.178;15.316;2022-10-10T08:03:15;12.50;99.90
21799;DHT22;24973;47.178;15.316;2022-10-10T08:06:06;12.50;99.90
21799;DHT22;24973;47.178;15.316;2022-10-10T08:08:55;12.60;99.90
21799;DHT22;24973;47.178;15.316;2022-10-10T08:11:44;12.70;99.90
21799;DHT22;24973;47.178;15.316;2022-10-10T08:14:33;13.70;99.90
21799;DHT22;24973;47.178;15.316;2022-10-10T08:17:23;12.80;99.90
21799;DHT22;24973;47.178;15.316;2022-10-10T08:20:12;12.90;99.90
21799;DHT22;24973;47.178;15.316;2022-10-10T08:23:00;13.00;99.90
21799;DHT22;24973;47.178;15.316;2022-10-10T08:25:49;13.10;99.90
21799;DHT22;24973;47.178;15.316;2022-10-10T08:28:38;13.30;99.90
21799;DHT22;24973;47.178;15.316;2022-10-10T08:31:27;13.40;99.90
21799;DHT22;24973;47.178;15.316;2022-10-10T08:34:18;13.60;99.90
21799;DHT22;24973;47.178;15.316;2022-10-10T08:37:07;13.80;99.90
21799;DHT22;24973;47.178;15.316;2022-10-10T08:39:55;14.00;99.90
21799;DHT22;24973;47.178;15.316;2022-10-10T08:42:48;14.00;99.90
21799;DHT22;24973;47.178;15.316;2022-10-10T08:45:39;14.10;99.90
21799;DHT22;24973;47.178;15.316;2022-10-10T08:48:29;14.20;99.90
21799;DHT22;24973;47.178;15.316;2022-10-10T08:51:25;14.20;99.90
21799;DHT22;24973;47.178;15.316;2022-10-10T08:54:17;14.20;99.90
21799;DHT22;24973;47.178;15.316;2022-10-10T08:57:22;14.20;99.90
21799;DHT22;24973;47.178;15.316;2022-10-10T09:00:17;14.20;99.90
21799;DHT22;24973;47.178;15.316;2022-10-10T09:03:18;14.20;99.90
21799;DHT22;24973;47.178;15.316;2022-10-10T09:06:27;14.30;99.90
21799;DHT22;24973;47.178;15.316;2022-10-10T09:09:28;14.30;99.90
21799;DHT22;24973;47.178;15.316;2022-10-10T09:12:27;14.40;99.90
21799;DHT22;24973;47.178;15.316;2022-10-10T09:15:24;14.40;99.90
21799;DHT22;24973;47.178;15.316;2022-10-10T09:18:22;14.50;99.90
21799;DHT22;24973;47.178;15.316;2022-10-10T09:21:23;14.60;99.90
21799;DHT22;24973;47.178;15.316;2022-10-10T09:24:18;14.80;99.90
21799;DHT22;24973;47.178;15.316;2022-10-10T09:27:13;15.00;99.90
21799;DHT22;24973;47.178;15.316;2022-10-10T09:30:06;15.30;99.90
21799;DHT22;24973;47.178;15.316;2022-10-10T09:33:06;15.50;99.90
21799;DHT22;24973;47.178;15.316;2022-10-10T09:36:03;15.60;99.90
21799;DHT22;24973;47.178;15.316;2022-10-10T09:38:58;15.80;99.90
21799;DHT22;24973;47.178;15.316;2022-10-10T09:41:53;16.10;99.90
21799;DHT22;24973;47.178;15.316;2022-10-10T09:44:44;16.30;99.90
21799;DHT22;24973;47.178;15.316;2022-10-10T09:47:33;16.40;99.90
21799;DHT22;24973;47.178;15.316;2022-10-10T09:50:23;16.50;99.90
21799;DHT22;24973;47.178;15.316;2022-10-10T09:53:13;16.70;99.90
21799;DHT22;24973;47.178;15.316;2022-10-10T09:56:04;16.80;99.90
21799;DHT22;24973;47.178;15.316;2022-10-10T09:58:55;17.10;99.90
21799;DHT22;24973;47.178;15.316;2022-10-10T10:02:00;17.40;99.90
21799;DHT22;24973;47.178;15.316;2022-10-10T10:04:50;17.60;99.90
21799;DHT22;24973;47.178;15.316;2022-10-10T10:07:46;17.70;99.90
21799;DHT22;24973;47.178;15.316;2022-10-10T10:10:35;17.90;99.90
21799;DHT22;24973;47.178;15.316;2022-10-10T10:13:29;17.90;99.90
21799;DHT22;24973;47.178;15.316;2022-10-10T10:16:19;18.00;99.90
21799;DHT22;24973;47.178;15.316;2022-10-10T10:19:28;18.20;99.90
21799;DHT22;24973;47.178;15.316;2022-10-10T10:22:29;18.30;99.90
21799;DHT22;24973;47.178;15.316;2022-10-10T10:25:29;18.40;99.90
21799;DHT22;24973;47.178;15.316;2022-10-10T10:28:20;18.50;99.90
21799;DHT22;24973;47.178;15.316;2022-10-10T10:31:23;18.70;99.90
21799;DHT22;24973;47.178;15.316;2022-10-10T10:37:46;19.30;99.90
21799;DHT22;24973;47.178;15.316;2022-10-10T10:40:47;20.10;99.90
21799;DHT22;24973;47.178;15.316;2022-10-10T10:43:59;19.80;99.90
21799;DHT22;24973;47.178;15.316;2022-10-10T10:47:19;20.10;99.90
21799;DHT22;24973;47.178;15.316;2022-10-10T10:50:36;20.40;99.90
21799;DHT22;24973;47.178;15.316;2022-10-10T10:53:38;20.40;99.90
21799;DHT22;24973;47.178;15.316;2022-10-10T10:56:34;20.70;99.90
21799;DHT22;24973;47.178;15.316;2022-10-10T10:59:35;21.80;99.90
21799;DHT22;24973;47.178;15.316;2022-10-10T11:02:41;20.90;98.70
21799;DHT22;24973;47.178;15.316;2022-10-10T11:05:44;21.00;99.00
21799;DHT22;24973;47.178;15.316;2022-10-10T11:08:48;21.30;98.00
21799;DHT22;24973;47.178;15.316;2022-10-10T11:11:59;21.50;97.30
21799;DHT22;24973;47.178;15.316;2022-10-10T11:14:57;21.70;98.10
21799;DHT22;24973;47.178;15.316;2022-10-10T11:17:54;22.00;96.70
21799;DHT22;24973;47.178;15.316;2022-10-10T11:20:50;22.30;95.90
21799;DHT22;24973;47.178;15.316;2022-10-10T11:23:44;22.40;95.60
21799;DHT22;24973;47.178;15.316;2022-10-10T11:26:39;22.40;95.30
21799;DHT22;24973;47.178;15.316;2022-10-10T11:29:44;22.40;95.80
21799;DHT22;24973;47.178;15.316;2022-10-10T11:32:42;22.40;95.20
21799;DHT22;24973;47.178;15.316;2022-10-10T11:35:39;22.70;95.30
21799;DHT22;24973;47.178;15.316;2022-10-10T11:38:37;22.90;93.70
21799;DHT22;24973;47.178;15.316;2022-10-10T11:41:31;23.20;93.50
21799;DHT22;24973;47.178;15.316;2022-10-10T11:44:26;23.30;92.30
21799;DHT22;24973;47.178;15.316;2022-10-10T11:47:23;23.50;92.70
21799;DHT22;24973;47.178;15.316;2022-10-10T11:50:17;23.70;91.70
21799;DHT22;24973;47.178;15.316;2022-10-10T11:53:16;23.80;91.00
21799;DHT22;24973;47.178;15.316;2022-10-10T11:56:14;23.80;90.50
21799;DHT22;24973;47.178;15.316;2022-10-10T11:59:12;23.60;90.00
21799;DHT22;24973;47.178;15.316;2022-10-10T12:02:14;23.60;90.30
21799;DHT22;24973;47.178;15.316;2022-10-10T12:05:06;24.00;90.60
21799;DHT22;24973;47.178;15.316;2022-10-10T12:08:14;24.20;87.50
21799;DHT22;24973;47.178;15.316;2022-10-10T12:11:12;24.10;87.50
21799;DHT22;24973;47.178;15.316;2022-10-10T12:14:07;24.30;89.30
21799;DHT22;24973;47.178;15.316;2022-10-10T12:16:58;24.90;89.70
21799;DHT22;24973;47.178;15.316;2022-10-10T12:19:47;25.10;83.40
21799;DHT22;24973;47.178;15.316;2022-10-10T12:22:38;25.10;80.90
21799;DHT22;24973;47.178;15.316;2022-10-10T12:25:37;23.40;82.80
21799;DHT22;24973;47.178;15.316;2022-10-10T12:28:34;24.30;85.50
21799;DHT22;24973;47.178;15.316;2022-10-10T12:31:34;24.20;85.10
21799;DHT22;24973;47.178;15.316;2022-10-10T12:34:42;24.40;86.40
21799;DHT22;24973;47.178;15.316;2022-10-10T12:38:08;24.80;83.50
21799;DHT22;24973;47.178;15.316;2022-10-10T12:41:11;25.00;82.10
21799;DHT22;24973;47.178;15.316;2022-10-10T12:44:22;24.90;79.90
21799;DHT22;24973;47.178;15.316;2022-10-10T12:47:35;24.70;81.70
21799;DHT22;24973;47.178;15.316;2022-10-10T12:50:55;24.40;82.20
21799;DHT22;24973;47.178;15.316;2022-10-10T12:53:46;24.10;80.90
21799;DHT22;24973;47.178;15.316;2022-10-10T12:56:40;24.00;83.30
21799;DHT22;24973;47.178;15.316;2022-10-10T12:59:34;24.10;83.50
21799;DHT22;24973;47.178;15.316;2022-10-10T13:02:25;23.80;81.50
21799;DHT22;24973;47.178;15.316;2022-10-10T13:05:18;23.50;82.80
21799;DHT22;24973;47.178;15.316;2022-10-10T13:08:13;23.70;85.10
21799;DHT22;24973;47.178;15.316;2022-10-10T13:11:07;24.00;83.60
21799;DHT22;24973;47.178;15.316;2022-10-10T13:14:07;24.10;82.90
21799;DHT22;24973;47.178;15.316;2022-10-10T13:16:56;24.50;83.00
21799;DHT22;24973;47.178;15.316;2022-10-10T13:19:45;25.10;82.40
21799;DHT22;24973;47.178;15.316;2022-10-10T13:22:35;25.40;80.50
21799;DHT22;24973;47.178;15.316;2022-10-10T13:25:25;25.80;80.90
21799;DHT22;24973;47.178;15.316;2022-10-10T13:28:17;26.10;78.80
21799;DHT22;24973;47.178;15.316;2022-10-10T13:31:11;26.10;76.00
21799;DHT22;24973;47.178;15.316;2022-10-10T13:34:03;26.10;75.50
21799;DHT22;24973;47.178;15.316;2022-10-10T13:36:58;26.30;77.60
21799;DHT22;24973;47.178;15.316;2022-10-10T13:39:49;26.80;74.40
21799;DHT22;24973;47.178;15.316;2022-10-10T13:42:39;26.60;72.70
21799;DHT22;24973;47.178;15.316;2022-10-10T13:45:31;26.40;74.00
21799;DHT22;24973;47.178;15.316;2022-10-10T13:48:38;26.60;74.70
21799;DHT22;24973;47.178;15.316;2022-10-10T13:51:41;26.80;74.00
21799;DHT22;24973;47.178;15.316;2022-10-10T13:54:38;27.00;72.90
21799;DHT22;24973;47.178;15.316;2022-10-10T13:57:28;26.20;71.10
21799;DHT22;24973;47.178;15.316;2022-10-10T14:00:19;25.20;73.90
21799;DHT22;24973;47.178;15.316;2022-10-10T14:03:14;25.30;74.60
21799;DHT22;24973;47.178;15.316;2022-10-10T14:06:07;25.30;73.90
21799;DHT22;24973;47.178;15.316;2022-10-10T14:09:04;25.40;73.70
21799;DHT22;24973;47.178;15.316;2022-10-10T14:11:55;25.50;73.80
21799;DHT22;24973;47.178;15.316;2022-10-10T14:14:47;25.90;73.40
21799;DHT22;24973;47.178;15.316;2022-10-10T14:17:38;26.20;72.70
21799;DHT22;24973;47.178;15.316;2022-10-10T14:20:27;26.20;71.00
21799;DHT22;24973;47.178;15.316;2022-10-10T14:23:20;25.90;71.00
21799;DHT22;24973;47.178;15.316;2022-10-10T14:26:11;25.60;71.60
21799;DHT22;24973;47.178;15.316;2022-10-10T14:29:02;25.60;73.30
21799;DHT22;24973;47.178;15.316;2022-10-10T14:31:51;25.90;73.60
21799;DHT22;24973;47.178;15.316;2022-10-10T14:34:40;26.10;72.60
21799;DHT22;24973;47.178;15.316;2022-10-10T14:37:29;26.40;72.30
21799;DHT22;24973;47.178;15.316;2022-10-10T14:40:21;26.60;72.50
21799;DHT22;24973;47.178;15.316;2022-10-10T14:43:10;26.70;71.70
21799;DHT22;24973;47.178;15.316;2022-10-10T14:46:00;26.40;71.70
21799;DHT22;24973;47.178;15.316;2022-10-10T14:48:49;26.10;71.80
21799;DHT22;24973;47.178;15.316;2022-10-10T14:51:37;25.60;72.90
21799;DHT22;24973;47.178;15.316;2022-10-10T14:54:26;25.00;73.40
21799;DHT22;24973;47.178;15.316;2022-10-10T14:57:16;24.60;75.90
21799;DHT22;24973;47.178;15.316;2022-10-10T15:00:10;24.40;76.90
21799;DHT22;24973;47.178;15.316;2022-10-10T15:03:02;24.50;76.30
21799;DHT22;24973;47.178;15.316;2022-10-10T15:05:51;24.70;76.10
21799;DHT22;24973;47.178;15.316;2022-10-10T15:08:39;24.90;75.90
21799;DHT22;24973;47.178;15.316;2022-10-10T15:11:28;25.00;76.60
21799;DHT22;24973;47.178;15.316;2022-10-10T15:14:18;24.90;77.50
21799;DHT22;24973;47.178;15.316;2022-10-10T15:17:07;24.50;79.00
21799;DHT22;24973;47.178;15.316;2022-10-10T15:19:55;23.90;81.40
21799;DHT22;24973;47.178;15.316;2022-10-10T15:22:44;23.30;83.20
21799;DHT22;24973;47.178;15.316;2022-10-10T15:25:33;22.60;85.40
21799;DHT22;24973;47.178;15.316;2022-10-10T15:28:22;21.90;87.80
21799;DHT22;24973;47.178;15.316;2022-10-10T15:31:12;21.40;90.30
21799;DHT22;24973;47.178;15.316;2022-10-10T15:34:01;20.90;91.20
21799;DHT22;24973;47.178;15.316;2022-10-10T15:36:50;20.30;91.60
21799;DHT22;24973;47.178;15.316;2022-10-10T15:39:39;19.60;92.90
21799;DHT22;24973;47.178;15.316;2022-10-10T15:42:30;18.90;94.40
21799;DHT22;24973;47.178;15.316;2022-10-10T15:45:19;18.30;95.40
21799;DHT22;24973;47.178;15.316;2022-10-10T15:48:24;18.00;96.90
21799;DHT22;24973;47.178;15.316;2022-10-10T15:51:13;17.60;98.90
21799;DHT22;24973;47.178;15.316;2022-10-10T15:54:03;17.20;99.90
21799;DHT22;24973;47.178;15.316;2022-10-10T15:56:52;16.80;99.90
21799;DHT22;24973;47.178;15.316;2022-10-10T15:59:40;16.40;99.90
21799;DHT22;24973;47.178;15.316;2022-10-10T16:02:29;16.10;99.90
21799;DHT22;24973;47.178;15.316;2022-10-10T16:05:19;15.70;99.90
21799;DHT22;24973;47.178;15.316;2022-10-10T16:08:09;15.50;99.90
21799;DHT22;24973;47.178;15.316;2022-10-10T16:11:03;15.40;99.90
21799;DHT22;24973;47.178;15.316;2022-10-10T16:13:53;15.30;99.90
21799;DHT22;24973;47.178;15.316;2022-10-10T16:16:42;15.10;99.90
21799;DHT22;24973;47.178;15.316;2022-10-10T16:19:31;15.00;99.90
21799;DHT22;24973;47.178;15.316;2022-10-10T16:22:21;14.90;99.90
21799;DHT22;24973;47.178;15.316;2022-10-10T16:25:10;14.80;99.90
21799;DHT22;24973;47.178;15.316;2022-10-10T16:28:14;14.80;99.90
21799;DHT22;24973;47.178;15.316;2022-10-10T16:31:05;14.70;99.90
21799;DHT22;24973;47.178;15.316;2022-10-10T16:33:56;14.60;99.90
21799;DHT22;24973;47.178;15.316;2022-10-10T16:36:46;14.30;99.90
21799;DHT22;24973;47.178;15.316;2022-10-10T16:39:36;14.10;99.90
21799;DHT22;24973;47.178;15.316;2022-10-10T16:42:25;14.00;99.90
21799;DHT22;24973;47.178;15.316;2022-10-10T16:45:13;14.00;99.90
21799;DHT22;24973;47.178;15.316;2022-10-10T16:48:02;14.00;99.90
21799;DHT22;24973;47.178;15.316;2022-10-10T16:50:51;14.10;99.90
21799;DHT22;24973;47.178;15.316;2022-10-10T16:53:40;14.00;99.90
21799;DHT22;24973;47.178;15.316;2022-10-10T16:56:31;14.00;99.90
21799;DHT22;24973;47.178;15.316;2022-10-10T16:59:20;14.00;99.90
21799;DHT22;24973;47.178;15.316;2022-10-10T17:02:09;14.00;99.90
21799;DHT22;24973;47.178;15.316;2022-10-10T17:04:59;13.90;99.90
21799;DHT22;24973;47.178;15.316;2022-10-10T17:07:47;13.90;99.90
21799;DHT22;24973;47.178;15.316;2022-10-10T17:10:36;13.80;99.90
21799;DHT22;24973;47.178;15.316;2022-10-10T17:13:27;13.80;99.90
21799;DHT22;24973;47.178;15.316;2022-10-10T17:16:19;13.80;99.90
21799;DHT22;24973;47.178;15.316;2022-10-10T17:19:29;13.70;99.90
21799;DHT22;24973;47.178;15.316;2022-10-10T17:22:18;13.50;99.90
21799;DHT22;24973;47.178;15.316;2022-10-10T17:25:07;13.40;99.90
21799;DHT22;24973;47.178;15.316;2022-10-10T17:27:56;13.30;99.90
21799;DHT22;24973;47.178;15.316;2022-10-10T17:30:48;13.30;99.90
21799;DHT22;24973;47.178;15.316;2022-10-10T17:33:37;13.20;99.90
21799;DHT22;24973;47.178;15.316;2022-10-10T17:36:27;13.00;99.90
21799;DHT22;24973;47.178;15.316;2022-10-10T17:39:15;13.00;99.90
21799;DHT22;24973;47.178;15.316;2022-10-10T17:42:04;13.00;99.90
21799;DHT22;24973;47.178;15.316;2022-10-10T17:44:53;13.00;99.90
21799;DHT22;24973;47.178;15.316;2022-10-10T17:47:46;12.90;99.90
21799;DHT22;24973;47.178;15.316;2022-10-10T17:50:35;13.00;99.90
21799;DHT22;24973;47.178;15.316;2022-10-10T17:53:24;12.90;99.90
21799;DHT22;24973;47.178;15.316;2022-10-10T17:56:16;12.90;99.90
21799;DHT22;24973;47.178;15.316;2022-10-10T17:59:06;12.80;99.90